createdAt,value
2022-09-05T00:00:23.471Z,102034.28
2022-09-05T00:02:56.824Z,102041.12
2022-09-05T00:06:03.608Z,102043.47
2022-09-05T00:09:02.187Z,102038.50
2022-09-05T00:11:43.827Z,102045.86
2022-09-05T00:14:14.747Z,102048.48
2022-09-05T00:18:00.183Z,102048.48
2022-09-05T00:24:33.159Z,102041.12
2022-09-05T00:24:36.554Z,102044.71
2022-09-05T00:26:45.225Z,102049.72
2022-09-05T00:30:41.960Z,102058.91
2022-09-05T00:32:34.292Z,102071.49
2022-09-05T00:35:26.383Z,102068.81
2022-09-05T00:37:55.041Z,102064.82
2022-09-05T00:40:38.770Z,102060.34
2022-09-05T00:43:24.627Z,102054.55
2022-09-05T00:46:02.408Z,102055.86
2022-09-05T00:48:52.862Z,102059.52
2022-09-05T00:51:54.441Z,102056.35
2022-09-05T00:54:26.415Z,102055.86
2022-09-05T00:57:36.841Z,102060.08
2022-09-05T01:00:18.492Z,102055.60
2022-09-05T01:02:57.741Z,102051.91
2022-09-05T01:05:59.572Z,102053.18
2022-09-05T01:08:58.604Z,102050.80
2022-09-05T01:11:53.602Z,102038.17
2022-09-05T01:14:58.307Z,102034.48
2022-09-05T01:17:53.320Z,102038.66
2022-09-05T01:20:56.825Z,102031.30
2022-09-05T01:23:42.591Z,102033.92
2022-09-05T01:26:43.622Z,102038.11
2022-09-05T01:32:44.884Z,102034.91
2022-09-05T01:35:13.158Z,102034.91
2022-09-05T01:38:00.884Z,102039.09
2022-09-05T01:41:18.888Z,102037.52
2022-09-05T01:44:18.516Z,102041.21
2022-09-05T01:47:00.088Z,102038.04
2022-09-05T01:50:01.066Z,102038.53
2022-09-05T01:53:06.760Z,102036.96
2022-09-05T01:56:09.905Z,102046.94
2022-09-05T01:59:07.438Z,102044.52
2022-09-05T02:01:53.425Z,102042.95
2022-09-05T02:04:21.074Z,102038.47
2022-09-05T02:06:54.401Z,102040.56
2022-09-05T02:09:37.305Z,102038.96
2022-09-05T02:12:21.800Z,102037.09
2022-09-05T02:15:04.764Z,102038.40
2022-09-05T02:17:50.512Z,102048.08
2022-09-05T02:20:32.726Z,102043.57
2022-09-05T02:23:27.373Z,102033.34
2022-09-05T02:26:04.172Z,102031.73
2022-09-05T02:29:12.464Z,102027.48
2022-09-05T02:32:04.578Z,102029.31
2022-09-05T02:34:32.169Z,102021.13
2022-09-05T02:38:58.100Z,102027.91
2022-09-05T02:45:11.603Z,102026.01
2022-09-05T02:45:16.895Z,102027.12
2022-09-05T02:46:21.348Z,102026.53
2022-09-05T02:49:14.006Z,102031.99
2022-09-05T02:57:33.107Z,102022.77
2022-09-05T02:57:33.266Z,102031.73
2022-09-05T02:58:08.993Z,102021.40
2022-09-05T03:00:45.469Z,102021.59
2022-09-05T03:03:36.137Z,102011.55
2022-09-05T03:06:17.752Z,102019.44
2022-09-05T03:09:17.183Z,102031.37
2022-09-05T03:12:28.510Z,102033.70
2022-09-05T03:15:18.770Z,102031.77
2022-09-05T03:17:56.782Z,102031.21
2022-09-05T03:21:09.551Z,102026.43
2022-09-05T03:24:26.973Z,102029.31
2022-09-05T03:27:42.218Z,102024.77
2022-09-05T03:30:13.210Z,102024.44
2022-09-05T03:33:15.149Z,102026.27
2022-09-05T03:36:10.660Z,102025.95
2022-09-05T03:38:50.729Z,102028.07
2022-09-05T03:41:21.172Z,102028.07
2022-09-05T03:44:26.073Z,102026.47
2022-09-05T03:47:12.193Z,102023.06
2022-09-05T03:52:01.831Z,102027.25
2022-09-05T03:57:10.636Z,102018.29
2022-09-05T03:57:17.190Z,102026.47
2022-09-05T03:59:21.785Z,102023.06
2022-09-05T04:02:57.933Z,102024.38
2022-09-05T04:08:18.540Z,102018.00
2022-09-05T04:08:19.740Z,102022.48
2022-09-05T04:11:01.387Z,102026.37
2022-09-05T04:13:41.002Z,102031.86
2022-09-05T04:16:43.256Z,102033.63
2022-09-05T04:19:25.656Z,102034.12
2022-09-05T04:22:06.913Z,102037.03
2022-09-05T04:24:48.621Z,102036.73
2022-09-05T04:27:40.931Z,102033.04
2022-09-05T04:30:39.902Z,102037.45
2022-09-05T04:33:37.000Z,102039.52
2022-09-05T04:36:24.977Z,102046.58
2022-09-05T04:39:20.135Z,102048.18
2022-09-05T04:41:51.235Z,102047.36
2022-09-05T04:44:46.523Z,102048.18
2022-09-05T04:47:20.248Z,102052.66
2022-09-05T04:50:20.856Z,102056.02
2022-09-05T04:53:34.435Z,102060.21
2022-09-05T04:56:07.906Z,102061.52
2022-09-05T04:59:59.845Z,102067.57
2022-09-05T05:06:15.112Z,102073.65
2022-09-05T05:06:17.541Z,102070.77
2022-09-05T05:07:27.556Z,102081.04
2022-09-05T05:11:07.464Z,102083.10
2022-09-05T05:18:02.534Z,102081.34
2022-09-05T05:18:14.682Z,102091.87
2022-09-05T05:19:15.725Z,102093.17
2022-09-05T05:21:52.937Z,102101.32
2022-09-05T05:24:26.448Z,102103.21
2022-09-05T05:27:16.853Z,102099.52
2022-09-05T05:29:50.919Z,102107.20
2022-09-05T05:32:44.819Z,102098.02
2022-09-05T05:35:17.040Z,102110.96
2022-09-05T05:37:51.213Z,102117.34
2022-09-05T05:40:27.599Z,102116.06
2022-09-05T05:43:20.892Z,102122.41
2022-09-05T05:46:02.577Z,102121.43
2022-09-05T05:48:39.063Z,102121.72
2022-09-05T05:52:00.724Z,102127.31
2022-09-05T05:54:47.185Z,102134.15
2022-09-05T05:57:44.765Z,102134.97
2022-09-05T06:00:28.011Z,102139.87
2022-09-05T06:03:29.479Z,102142.26
2022-09-05T06:06:09.171Z,102150.73
2022-09-05T06:13:24.181Z,102152.82
2022-09-05T06:15:02.056Z,102150.73
2022-09-05T06:15:40.138Z,102140.46
2022-09-05T06:18:15.531Z,102160.27
2022-09-05T06:22:10.359Z,102144.52
2022-09-05T06:23:49.121Z,102166.33
2022-09-05T06:26:35.307Z,102148.30
2022-09-05T06:29:38.447Z,102148.60
2022-09-05T06:32:18.801Z,102141.31
2022-09-05T06:35:13.190Z,102142.42
2022-09-05T06:38:02.104Z,102139.61
2022-09-05T06:40:38.458Z,102143.89
2022-09-05T06:43:32.964Z,102141.87
2022-09-05T06:46:15.936Z,102148.54
2022-09-05T06:49:30.401Z,102137.05
2022-09-05T06:52:29.635Z,102150.79
2022-09-05T06:55:19.112Z,102152.75
2022-09-05T06:58:19.067Z,102150.73
2022-09-05T07:00:51.561Z,102159.26
2022-09-05T07:03:52.216Z,102155.14
2022-09-05T07:07:01.261Z,102154.42
2022-09-05T07:10:22.202Z,102147.95
2022-09-05T07:13:07.013Z,102146.77
2022-09-05T07:15:53.338Z,102155.27
2022-09-05T07:18:47.529Z,102164.07
2022-09-05T07:21:27.021Z,102161.23
2022-09-05T07:24:22.717Z,102166.26
2022-09-05T07:27:12.622Z,102165.02
2022-09-05T07:29:49.701Z,102163.48
2022-09-05T07:32:32.494Z,102165.34
2022-09-05T07:35:03.916Z,102167.80
2022-09-05T07:37:41.319Z,102169.98
2022-09-05T07:40:26.092Z,102178.72
2022-09-05T07:43:08.781Z,102169.07
2022-09-05T07:45:55.686Z,102171.72
2022-09-05T07:48:34.939Z,102186.83
2022-09-05T07:56:46.795Z,102177.93
2022-09-05T07:57:09.517Z,102180.42
2022-09-05T07:59:43.717Z,102180.55
2022-09-05T08:02:13.896Z,102172.18
2022-09-05T08:04:42.950Z,102171.69
2022-09-05T08:07:49.113Z,102178.62
2022-09-05T08:10:22.186Z,102180.22
2022-09-05T08:13:22.678Z,102183.72
2022-09-05T08:16:09.685Z,102186.40
2022-09-05T08:18:55.815Z,102176.16
2022-09-05T08:21:31.151Z,102179.63
2022-09-05T08:24:09.124Z,102176.82
2022-09-05T08:26:53.079Z,102172.08
2022-09-05T08:29:41.045Z,102176.36
2022-09-05T08:32:11.530Z,102179.53
2022-09-05T08:34:55.660Z,102175.61
2022-09-05T08:37:27.651Z,102174.56
2022-09-05T08:40:10.723Z,102176.43
2022-09-05T08:42:42.655Z,102173.55
2022-09-05T08:46:41.094Z,102168.29
2022-09-05T08:48:30.785Z,102177.51
2022-09-05T08:51:10.593Z,102176.76
2022-09-05T08:54:14.680Z,102167.24
2022-09-05T08:56:45.437Z,102170.45
2022-09-05T09:00:18.389Z,102172.27
2022-09-05T09:03:13.500Z,102178.09
2022-09-05T09:06:14.506Z,102175.97
2022-09-05T09:09:14.749Z,102165.90
2022-09-05T09:11:45.232Z,102162.73
2022-09-05T09:14:36.600Z,102152.91
2022-09-05T09:17:17.225Z,102153.67
2022-09-05T09:20:08.573Z,102157.89
2022-09-05T09:22:45.284Z,102154.39
2022-09-05T09:25:44.695Z,102163.35
2022-09-05T09:28:50.590Z,102150.04
2022-09-05T09:31:46.177Z,102147.81
2022-09-05T09:34:36.681Z,102146.09
2022-09-05T09:37:12.411Z,102140.43
2022-09-05T09:40:07.733Z,102142.45
2022-09-05T09:42:57.023Z,102132.88
2022-09-05T09:46:05.417Z,102134.15
2022-09-05T09:49:04.249Z,102133.62
2022-09-05T09:51:46.145Z,102133.79
2022-09-05T09:54:45.077Z,102138.01
2022-09-05T09:57:27.335Z,102138.27
2022-09-05T10:00:11.480Z,102140.03
2022-09-05T10:05:35.438Z,102135.42
2022-09-05T10:10:50.596Z,102131.56
2022-09-05T10:10:52.198Z,102132.31
2022-09-05T10:12:55.190Z,102131.47
2022-09-05T10:15:54.971Z,102119.98
2022-09-05T10:18:40.042Z,102126.95
2022-09-05T10:21:16.278Z,102130.06
2022-09-05T10:24:20.285Z,102117.50
2022-09-05T10:27:06.317Z,102113.41
2022-09-05T10:29:55.796Z,102113.55
2022-09-05T10:35:10.949Z,102115.05
2022-09-05T10:35:52.849Z,102112.27
2022-09-05T10:38:43.861Z,102108.22
2022-09-05T10:41:22.503Z,102114.20
2022-09-05T10:44:03.398Z,102115.25
2022-09-05T10:47:10.836Z,102118.48
2022-09-05T10:49:46.184Z,102111.91
2022-09-05T10:52:22.774Z,102111.13
2022-09-05T10:55:14.561Z,102111.91
2022-09-05T10:58:30.430Z,102105.01
2022-09-05T11:02:29.802Z,102105.38
2022-09-05T11:05:06.035Z,102101.58
2022-09-05T11:08:27.908Z,102095.82
2022-09-05T11:11:34.145Z,102095.89
2022-09-05T11:14:26.165Z,102082.16
2022-09-05T11:17:02.098Z,102087.23
2022-09-05T11:19:51.506Z,102071.56
2022-09-05T11:22:24.452Z,102075.84
2022-09-05T11:25:04.334Z,102072.12
2022-09-05T11:27:45.267Z,102075.84
2022-09-05T11:30:30.033Z,102063.58
2022-09-05T11:39:48.936Z,102062.01
2022-09-05T11:39:52.305Z,102045.37
2022-09-05T11:40:30.200Z,102035.82
2022-09-05T11:42:49.590Z,102051.74
2022-09-05T11:45:56.154Z,102051.61
2022-09-05T11:48:29.673Z,102051.91
2022-09-05T11:51:18.761Z,102044.26
2022-09-05T11:54:21.285Z,102053.02
2022-09-05T11:57:32.529Z,102051.22
2022-09-05T12:00:30.525Z,102052.30
2022-09-05T12:03:57.004Z,102057.04
2022-09-05T12:06:24.547Z,102052.49
2022-09-05T12:09:01.385Z,102054.82
2022-09-05T12:11:40.064Z,102055.34
2022-09-05T12:14:42.420Z,102059.76
2022-09-05T12:17:35.454Z,102052.95
2022-09-05T12:20:22.338Z,102045.37
2022-09-05T12:23:02.826Z,102047.88
2022-09-05T12:27:36.412Z,102041.18
2022-09-05T12:29:34.077Z,102037.91
2022-09-05T12:33:36.611Z,102042.03
2022-09-05T12:36:13.305Z,102037.13
2022-09-05T12:40:56.526Z,102032.52
2022-09-05T12:41:40.806Z,102031.66
2022-09-05T12:44:42.584Z,102031.53
2022-09-05T12:46:55.914Z,102025.29
2022-09-05T12:49:35.283Z,102022.48
2022-09-05T12:52:14.067Z,102019.11
2022-09-05T12:54:47.375Z,102020.48
2022-09-05T13:01:36.575Z,102010.80
2022-09-05T13:03:04.489Z,102011.81
2022-09-05T13:03:28.029Z,102001.94
2022-09-05T13:06:19.492Z,101999.81
2022-09-05T13:09:05.991Z,101999.55
2022-09-05T13:14:47.605Z,101996.88
2022-09-05T13:15:14.047Z,102006.75
2022-09-05T13:17:46.035Z,101988.20
2022-09-05T13:20:19.998Z,101987.72
2022-09-05T13:22:51.582Z,101980.66
2022-09-05T13:25:28.089Z,101978.63
2022-09-05T13:28:02.660Z,101974.24
2022-09-05T13:37:14.847Z,101969.63
2022-09-05T13:37:58.801Z,101959.95
2022-09-05T13:38:12.828Z,101965.12
2022-09-05T13:40:10.741Z,101958.71
2022-09-05T13:42:45.772Z,101958.48
2022-09-05T13:45:19.784Z,101960.94
2022-09-05T13:48:12.003Z,101963.19
2022-09-05T13:50:49.153Z,101957.57
2022-09-05T13:53:22.373Z,101954.85
2022-09-05T13:56:03.022Z,101951.95
2022-09-05T13:58:52.391Z,101951.38
2022-09-05T14:02:26.200Z,101951.38
2022-09-05T14:05:24.091Z,101944.20
2022-09-05T14:08:17.918Z,101939.71
2022-09-05T14:11:08.701Z,101940.23
2022-09-05T14:13:51.113Z,101936.64
2022-09-05T14:16:27.435Z,101934.28
2022-09-05T14:19:15.313Z,101927.65
2022-09-05T14:21:45.314Z,101926.86
2022-09-05T14:24:27.329Z,101923.72
2022-09-05T14:27:32.266Z,101917.31
2022-09-05T14:32:14.428Z,101922.61
2022-09-05T14:37:44.559Z,101914.37
2022-09-05T14:37:51.714Z,101913.03
2022-09-05T14:39:40.723Z,101902.70
2022-09-05T14:42:36.522Z,101896.29
2022-09-05T14:45:25.327Z,101899.23
2022-09-05T14:48:14.329Z,101899.23
2022-09-05T14:51:24.403Z,101892.79
2022-09-05T14:59:35.374Z,101886.97
2022-09-05T15:02:53.850Z,101892.04
2022-09-05T15:03:02.002Z,101893.60
2022-09-05T15:05:31.983Z,101882.72
2022-09-05T15:08:35.246Z,101882.13
2022-09-05T15:12:18.872Z,101877.84
2022-09-05T15:14:07.366Z,101876.77
2022-09-05T15:16:39.834Z,101874.05
2022-09-05T15:19:11.450Z,101877.42
2022-09-05T15:21:42.238Z,101877.87
2022-09-05T15:24:21.953Z,101872.48
2022-09-05T15:26:58.277Z,101869.77
2022-09-05T15:29:36.417Z,101869.99
2022-09-05T15:32:37.368Z,101868.30
2022-09-05T15:35:07.246Z,101869.31
2022-09-05T15:37:41.800Z,101862.34
2022-09-05T15:40:24.451Z,101861.43
2022-09-05T15:43:01.760Z,101859.76
2022-09-05T15:45:36.407Z,101857.24
2022-09-05T15:48:15.387Z,101861.07
2022-09-05T15:50:51.416Z,101862.54
2022-09-05T15:53:30.094Z,101856.55
2022-09-05T15:56:18.001Z,101848.67
2022-09-05T15:58:55.219Z,101848.74
2022-09-05T16:01:59.890Z,101847.47
2022-09-05T16:08:38.212Z,101846.78
2022-09-05T16:10:38.384Z,101851.59
2022-09-05T16:11:05.386Z,101839.39
2022-09-05T16:13:46.347Z,101832.45
2022-09-05T16:21:14.357Z,101830.82
2022-09-05T16:23:23.943Z,101832.52
2022-09-05T16:23:25.661Z,101834.62
2022-09-05T16:24:59.248Z,101825.36
2022-09-05T16:27:55.237Z,101823.46
2022-09-05T16:30:32.446Z,101822.58
2022-09-05T16:33:06.726Z,101817.31
2022-09-05T16:35:39.618Z,101816.63
2022-09-05T16:38:25.880Z,101814.70
2022-09-05T16:41:22.240Z,101811.59
2022-09-05T16:44:05.325Z,101806.72
2022-09-05T16:46:43.049Z,101801.06
2022-09-05T16:49:42.107Z,101797.70
2022-09-05T16:52:17.882Z,101803.58
2022-09-05T16:55:05.268Z,101801.03
2022-09-05T16:57:36.897Z,101797.66
2022-09-05T17:00:06.674Z,101804.66
2022-09-05T17:02:52.132Z,101786.67
2022-09-05T17:05:47.107Z,101793.09
2022-09-05T17:08:29.162Z,101794.36
2022-09-05T17:11:13.855Z,101790.41
2022-09-05T17:13:58.145Z,101802.44
2022-09-05T17:16:30.873Z,101800.41
2022-09-05T17:19:02.222Z,101795.41
2022-09-05T17:24:21.660Z,101792.76
2022-09-05T17:29:19.600Z,101791.48
2022-09-05T17:29:28.585Z,101804.04
2022-09-05T17:32:57.256Z,101800.64
2022-09-05T17:35:43.335Z,101790.53
2022-09-05T17:38:22.147Z,101793.51
2022-09-05T17:41:08.088Z,101793.74
2022-09-05T17:43:40.506Z,101795.54
2022-09-05T17:46:21.173Z,101793.45
2022-09-05T17:49:05.415Z,101797.96
2022-09-05T17:51:36.386Z,101798.97
2022-09-05T17:54:05.886Z,101794.88
2022-09-05T17:56:45.554Z,101801.98
2022-09-05T17:59:19.805Z,101801.62
2022-09-05T18:02:02.869Z,101802.86
2022-09-05T18:04:53.470Z,101807.02
2022-09-05T18:07:23.142Z,101803.71
2022-09-05T18:10:15.078Z,101812.34
2022-09-05T18:13:14.016Z,101809.83
2022-09-05T18:15:41.293Z,101809.20
2022-09-05T18:19:28.375Z,101808.03
2022-09-05T18:21:23.188Z,101811.92
2022-09-05T18:24:07.981Z,101806.27
2022-09-05T18:26:45.772Z,101811.69
2022-09-05T18:29:58.009Z,101819.28
2022-09-05T18:32:41.337Z,101814.63
2022-09-05T18:35:37.366Z,101816.92
2022-09-05T18:38:05.683Z,101814.90
2022-09-05T18:41:07.317Z,101822.45
2022-09-05T18:43:37.842Z,101820.13
2022-09-05T18:46:24.157Z,101825.78
2022-09-05T18:49:44.988Z,101830.92
2022-09-05T18:52:03.455Z,101824.87
2022-09-05T18:54:35.057Z,101834.22
2022-09-05T18:57:26.159Z,101840.11
2022-09-05T18:59:57.374Z,101834.09
2022-09-05T19:02:59.131Z,101838.96
2022-09-05T19:05:47.057Z,101831.57
2022-09-05T19:08:38.539Z,101825.30
2022-09-05T19:11:27.771Z,101824.02
2022-09-05T19:14:26.642Z,101832.78
2022-09-05T19:16:50.053Z,101823.59
2022-09-05T19:19:24.789Z,101828.40
2022-09-05T19:22:39.456Z,101823.40
2022-09-05T19:24:48.342Z,101831.41
2022-09-05T19:32:29.358Z,101835.10
2022-09-05T19:36:53.901Z,101832.59
2022-09-05T19:36:56.242Z,101833.17
2022-09-05T19:36:57.822Z,101835.73
2022-09-05T19:39:49.411Z,101830.00
2022-09-05T19:47:25.719Z,101824.80
2022-09-05T19:47:38.727Z,101827.98
2022-09-05T19:48:03.879Z,101825.39
2022-09-05T19:50:32.083Z,101815.35
2022-09-05T19:53:08.257Z,101814.34
2022-09-05T19:55:39.909Z,101823.07
2022-09-05T19:58:20.646Z,101821.77
2022-09-05T20:01:02.267Z,101820.23
2022-09-05T20:03:38.479Z,101828.17
2022-09-05T20:06:29.136Z,101825.78
2022-09-05T20:09:16.455Z,101825.52
2022-09-05T20:11:53.469Z,101828.17
2022-09-05T20:14:37.700Z,101829.74
2022-09-05T20:17:29.525Z,101820.78
2022-09-05T20:20:10.716Z,101827.65
2022-09-05T20:22:48.645Z,101821.34
2022-09-05T20:25:35.108Z,101825.82
2022-09-05T20:28:09.834Z,101828.20
2022-09-05T20:30:42.386Z,101818.72
2022-09-05T20:33:51.714Z,101820.06
2022-09-05T20:43:18.357Z,101824.02
2022-09-05T20:43:18.458Z,101837.49
2022-09-05T20:43:23.029Z,101826.66
2022-09-05T20:46:30.646Z,101833.27
2022-09-05T20:54:04.644Z,101828.23
2022-09-05T20:54:20.536Z,101836.67
2022-09-05T20:54:35.039Z,101853.32
2022-09-05T20:57:24.030Z,101855.67
2022-09-05T20:59:57.423Z,101841.45
2022-09-05T21:02:32.498Z,101845.14
2022-09-05T21:05:20.318Z,101844.33
2022-09-05T21:08:01.176Z,101838.02
2022-09-05T21:10:54.822Z,101836.15
2022-09-05T21:13:30.173Z,101840.37
2022-09-05T21:15:58.435Z,101841.38
2022-09-05T21:18:33.825Z,101836.09
2022-09-05T21:21:10.304Z,101829.77
2022-09-05T21:24:17.268Z,101824.25
2022-09-05T21:26:50.263Z,101828.99
2022-09-05T21:29:33.015Z,101824.28
2022-09-05T21:32:03.964Z,101823.20
2022-09-05T21:34:44.899Z,101822.98
2022-09-05T21:37:16.317Z,101825.33
2022-09-05T21:40:00.137Z,101834.58
2022-09-05T21:47:05.514Z,101834.32
2022-09-05T21:47:45.068Z,101834.84
2022-09-05T21:48:11.565Z,101833.80
2022-09-05T21:50:50.505Z,101837.27
2022-09-05T21:59:13.600Z,101847.79
2022-09-05T21:59:25.012Z,101844.33
2022-09-05T21:59:46.121Z,101830.88
2022-09-05T22:02:08.204Z,101819.54
2022-09-05T22:04:41.237Z,101834.62
2022-09-05T22:07:14.916Z,101834.88
2022-09-05T22:09:42.985Z,101829.58
2022-09-05T22:12:17.430Z,101836.97
2022-09-05T22:15:08.655Z,101835.62
2022-09-05T22:17:48.266Z,101837.49
2022-09-05T22:20:18.695Z,101831.41
2022-09-05T22:22:56.455Z,101836.19
2022-09-05T22:25:29.665Z,101824.58
2022-09-05T22:28:11.601Z,101832.49
2022-09-05T22:30:40.346Z,101831.15
2022-09-05T22:33:08.986Z,101834.58
2022-09-05T22:35:40.102Z,101840.66
2022-09-05T22:38:15.232Z,101837.75
2022-09-05T22:40:45.730Z,101840.92
2022-09-05T22:43:16.004Z,101841.19
2022-09-05T22:45:43.711Z,101826.66
2022-09-05T22:48:14.026Z,101830.63
2022-09-05T22:50:43.380Z,101828.76
2022-09-05T22:53:11.560Z,101829.32
2022-09-05T22:55:44.224Z,101826.66
2022-09-05T22:58:15.194Z,101823.49
2022-09-05T23:00:45.259Z,101825.59
2022-09-05T23:03:13.306Z,101825.06
2022-09-05T23:05:41.009Z,101821.37
2022-09-05T23:08:09.653Z,101827.71
2022-09-05T23:10:38.154Z,101825.85
2022-09-05T23:13:08.299Z,101824.28
2022-09-05T23:15:36.794Z,101824.84
2022-09-05T23:18:05.603Z,101823.49
2022-09-05T23:20:34.019Z,101822.45
2022-09-05T23:23:05.611Z,101814.24
2022-09-05T23:25:34.658Z,101816.37
2022-09-05T23:28:11.553Z,101815.84
2022-09-05T23:30:40.370Z,101816.89
2022-09-05T23:33:09.760Z,101812.67
2022-09-05T23:35:38.391Z,101812.67
2022-09-05T23:38:12.841Z,101796.62
2022-09-05T23:40:40.537Z,101807.15
2022-09-05T23:43:08.959Z,101803.45
2022-09-05T23:45:36.689Z,101807.38
2022-09-05T23:48:04.481Z,101808.95
2022-09-05T23:50:32.172Z,101800.54
2022-09-05T23:53:05.275Z,101799.98
2022-09-05T23:55:33.819Z,101808.16
2022-09-05T23:58:01.831Z,101801.33
